sensor_id;sensor_type;location;lat;lon;timestamp;temperature;humidity
19017;DHT22;9641;51.494;6.670;2022-08-19T00:01:15;20.10;99.90
19017;DHT22;9641;51.494;6.670;2022-08-19T00:03:42;20.10;99.90
19017;DHT22;9641;51.494;6.670;2022-08-19T00:06:08;20.10;99.90
19017;DHT22;9641;51.494;6.670;2022-08-19T00:08:37;20.10;99.90
19017;DHT22;9641;51.494;6.670;2022-08-19T00:11:04;20.00;99.90
19017;DHT22;9641;51.494;6.670;2022-08-19T00:13:31;20.00;99.90
19017;DHT22;9641;51.494;6.670;2022-08-19T00:15:58;19.90;99.90
19017;DHT22;9641;51.494;6.670;2022-08-19T00:18:26;19.90;99.90
19017;DHT22;9641;51.494;6.670;2022-08-19T00:20:53;19.90;99.90
19017;DHT22;9641;51.494;6.670;2022-08-19T00:23:20;19.90;99.90
19017;DHT22;9641;51.494;6.670;2022-08-19T00:25:48;19.90;99.90
19017;DHT22;9641;51.494;6.670;2022-08-19T00:28:15;19.80;99.90
19017;DHT22;9641;51.494;6.670;2022-08-19T00:30:42;19.80;99.90
19017;DHT22;9641;51.494;6.670;2022-08-19T00:33:09;19.70;99.90
19017;DHT22;9641;51.494;6.670;2022-08-19T00:35:36;19.70;99.90
19017;DHT22;9641;51.494;6.670;2022-08-19T00:38:04;19.70;99.90
19017;DHT22;9641;51.494;6.670;2022-08-19T00:40:32;19.70;99.90
19017;DHT22;9641;51.494;6.670;2022-08-19T00:43:00;19.60;99.90
19017;DHT22;9641;51.494;6.670;2022-08-19T00:45:28;19.60;99.90
19017;DHT22;9641;51.494;6.670;2022-08-19T00:47:57;19.60;99.90
19017;DHT22;9641;51.494;6.670;2022-08-19T00:50:29;19.60;99.90
19017;DHT22;9641;51.494;6.670;2022-08-19T00:52:57;19.60;99.90
19017;DHT22;9641;51.494;6.670;2022-08-19T00:55:26;19.60;99.90
19017;DHT22;9641;51.494;6.670;2022-08-19T00:57:57;19.50;99.90
19017;DHT22;9641;51.494;6.670;2022-08-19T01:00:27;19.50;99.90
19017;DHT22;9641;51.494;6.670;2022-08-19T01:02:55;19.50;99.90
19017;DHT22;9641;51.494;6.670;2022-08-19T01:05:24;19.50;99.90
19017;DHT22;9641;51.494;6.670;2022-08-19T01:07:53;19.40;99.90
19017;DHT22;9641;51.494;6.670;2022-08-19T01:10:23;19.40;99.90
19017;DHT22;9641;51.494;6.670;2022-08-19T01:12:51;19.40;99.90
19017;DHT22;9641;51.494;6.670;2022-08-19T01:15:23;19.50;99.90
19017;DHT22;9641;51.494;6.670;2022-08-19T01:17:53;19.40;99.90
19017;DHT22;9641;51.494;6.670;2022-08-19T01:20:22;19.50;99.90
19017;DHT22;9641;51.494;6.670;2022-08-19T01:22:52;19.40;99.90
19017;DHT22;9641;51.494;6.670;2022-08-19T01:25:22;19.40;99.90
19017;DHT22;9641;51.494;6.670;2022-08-19T01:27:52;19.40;99.90
19017;DHT22;9641;51.494;6.670;2022-08-19T01:30:23;19.40;99.90
19017;DHT22;9641;51.494;6.670;2022-08-19T01:32:50;19.40;99.90
19017;DHT22;9641;51.494;6.670;2022-08-19T01:35:18;19.30;99.90
19017;DHT22;9641;51.494;6.670;2022-08-19T01:37:47;19.30;99.90
19017;DHT22;9641;51.494;6.670;2022-08-19T01:40:16;19.20;99.90
19017;DHT22;9641;51.494;6.670;2022-08-19T01:42:44;19.20;99.90
19017;DHT22;9641;51.494;6.670;2022-08-19T01:45:11;19.20;99.90
19017;DHT22;9641;51.494;6.670;2022-08-19T01:47:38;19.20;99.90
19017;DHT22;9641;51.494;6.670;2022-08-19T01:50:08;19.30;99.90
19017;DHT22;9641;51.494;6.670;2022-08-19T01:52:36;19.20;99.90
19017;DHT22;9641;51.494;6.670;2022-08-19T01:55:05;19.20;99.90
19017;DHT22;9641;51.494;6.670;2022-08-19T01:57:33;19.20;99.90
19017;DHT22;9641;51.494;6.670;2022-08-19T02:00:00;19.10;99.90
19017;DHT22;9641;51.494;6.670;2022-08-19T02:02:37;19.10;99.90
19017;DHT22;9641;51.494;6.670;2022-08-19T02:05:05;19.10;99.90
19017;DHT22;9641;51.494;6.670;2022-08-19T02:07:33;19.00;99.90
19017;DHT22;9641;51.494;6.670;2022-08-19T02:10:02;19.00;99.90
19017;DHT22;9641;51.494;6.670;2022-08-19T02:12:29;19.00;99.90
19017;DHT22;9641;51.494;6.670;2022-08-19T02:14:58;18.90;99.90
19017;DHT22;9641;51.494;6.670;2022-08-19T02:17:27;18.90;99.90
19017;DHT22;9641;51.494;6.670;2022-08-19T02:19:54;18.90;99.90
19017;DHT22;9641;51.494;6.670;2022-08-19T02:22:21;18.90;99.90
19017;DHT22;9641;51.494;6.670;2022-08-19T02:24:49;18.80;99.90
19017;DHT22;9641;51.494;6.670;2022-08-19T02:27:16;18.90;99.90
19017;DHT22;9641;51.494;6.670;2022-08-19T02:29:43;18.90;99.90
19017;DHT22;9641;51.494;6.670;2022-08-19T02:32:13;18.90;99.90
19017;DHT22;9641;51.494;6.670;2022-08-19T02:34:40;18.90;99.90
19017;DHT22;9641;51.494;6.670;2022-08-19T02:37:07;19.00;99.90
19017;DHT22;9641;51.494;6.670;2022-08-19T02:39:54;19.00;99.90
19017;DHT22;9641;51.494;6.670;2022-08-19T02:42:20;19.00;99.90
19017;DHT22;9641;51.494;6.670;2022-08-19T02:44:47;18.90;99.90
19017;DHT22;9641;51.494;6.670;2022-08-19T02:47:15;19.00;99.90
19017;DHT22;9641;51.494;6.670;2022-08-19T02:49:44;18.90;99.90
19017;DHT22;9641;51.494;6.670;2022-08-19T02:52:11;18.80;99.90
19017;DHT22;9641;51.494;6.670;2022-08-19T02:54:37;18.80;99.90
19017;DHT22;9641;51.494;6.670;2022-08-19T02:57:04;18.80;99.90
19017;DHT22;9641;51.494;6.670;2022-08-19T02:59:32;18.80;99.90
19017;DHT22;9641;51.494;6.670;2022-08-19T03:01:59;18.70;99.90
19017;DHT22;9641;51.494;6.670;2022-08-19T03:04:27;18.80;99.90
19017;DHT22;9641;51.494;6.670;2022-08-19T03:06:55;18.70;99.90
19017;DHT22;9641;51.494;6.670;2022-08-19T03:09:22;18.80;99.90
19017;DHT22;9641;51.494;6.670;2022-08-19T03:11:49;18.80;99.90
19017;DHT22;9641;51.494;6.670;2022-08-19T03:14:16;18.90;99.90
19017;DHT22;9641;51.494;6.670;2022-08-19T03:16:45;19.00;99.90
19017;DHT22;9641;51.494;6.670;2022-08-19T03:19:13;19.00;99.90
19017;DHT22;9641;51.494;6.670;2022-08-19T03:21:43;19.00;99.90
19017;DHT22;9641;51.494;6.670;2022-08-19T03:24:11;18.90;99.90
19017;DHT22;9641;51.494;6.670;2022-08-19T03:26:39;18.90;99.90
19017;DHT22;9641;51.494;6.670;2022-08-19T03:29:07;18.90;99.90
19017;DHT22;9641;51.494;6.670;2022-08-19T03:31:34;18.80;99.90
19017;DHT22;9641;51.494;6.670;2022-08-19T03:34:01;18.80;99.90
19017;DHT22;9641;51.494;6.670;2022-08-19T03:36:28;18.70;99.90
19017;DHT22;9641;51.494;6.670;2022-08-19T03:38:59;18.70;99.90
19017;DHT22;9641;51.494;6.670;2022-08-19T03:41:29;18.60;99.90
19017;DHT22;9641;51.494;6.670;2022-08-19T03:43:57;18.60;99.90
19017;DHT22;9641;51.494;6.670;2022-08-19T03:46:26;18.60;99.90
19017;DHT22;9641;51.494;6.670;2022-08-19T03:48:55;18.60;99.90
19017;DHT22;9641;51.494;6.670;2022-08-19T03:51:25;18.60;99.90
19017;DHT22;9641;51.494;6.670;2022-08-19T03:53:52;18.60;99.90
19017;DHT22;9641;51.494;6.670;2022-08-19T03:56:22;18.60;99.90
19017;DHT22;9641;51.494;6.670;2022-08-19T03:58:51;18.60;99.90
19017;DHT22;9641;51.494;6.670;2022-08-19T04:01:20;18.60;99.90
19017;DHT22;9641;51.494;6.670;2022-08-19T04:03:47;18.60;99.90
19017;DHT22;9641;51.494;6.670;2022-08-19T04:06:16;18.60;99.90
19017;DHT22;9641;51.494;6.670;2022-08-19T04:08:46;18.60;99.90
19017;DHT22;9641;51.494;6.670;2022-08-19T04:11:15;18.60;99.90
19017;DHT22;9641;51.494;6.670;2022-08-19T04:13:43;18.50;99.90
19017;DHT22;9641;51.494;6.670;2022-08-19T04:16:10;18.50;99.90
19017;DHT22;9641;51.494;6.670;2022-08-19T04:18:38;18.50;99.90
19017;DHT22;9641;51.494;6.670;2022-08-19T04:21:07;18.40;99.90
19017;DHT22;9641;51.494;6.670;2022-08-19T04:23:35;18.30;99.90
19017;DHT22;9641;51.494;6.670;2022-08-19T04:26:02;18.30;99.90
19017;DHT22;9641;51.494;6.670;2022-08-19T04:28:29;18.20;99.90
19017;DHT22;9641;51.494;6.670;2022-08-19T04:30:57;18.30;99.90
19017;DHT22;9641;51.494;6.670;2022-08-19T04:33:25;18.20;99.90
19017;DHT22;9641;51.494;6.670;2022-08-19T04:35:53;18.20;99.90
19017;DHT22;9641;51.494;6.670;2022-08-19T04:38:21;18.20;99.90
19017;DHT22;9641;51.494;6.670;2022-08-19T04:40:53;18.20;99.90
19017;DHT22;9641;51.494;6.670;2022-08-19T04:43:38;18.20;99.90
19017;DHT22;9641;51.494;6.670;2022-08-19T04:46:08;18.20;99.90
19017;DHT22;9641;51.494;6.670;2022-08-19T04:48:36;18.20;99.90
19017;DHT22;9641;51.494;6.670;2022-08-19T04:51:08;18.30;99.90
19017;DHT22;9641;51.494;6.670;2022-08-19T04:53:38;18.30;99.90
19017;DHT22;9641;51.494;6.670;2022-08-19T04:56:07;18.30;99.90
19017;DHT22;9641;51.494;6.670;2022-08-19T04:58:35;18.40;99.90
19017;DHT22;9641;51.494;6.670;2022-08-19T05:01:03;18.40;99.90
19017;DHT22;9641;51.494;6.670;2022-08-19T05:03:32;18.40;99.90
19017;DHT22;9641;51.494;6.670;2022-08-19T05:06:04;18.40;99.90
19017;DHT22;9641;51.494;6.670;2022-08-19T05:08:34;18.40;99.90
19017;DHT22;9641;51.494;6.670;2022-08-19T05:11:06;18.30;99.90
19017;DHT22;9641;51.494;6.670;2022-08-19T05:13:33;18.40;99.90
19017;DHT22;9641;51.494;6.670;2022-08-19T05:16:00;18.40;99.90
19017;DHT22;9641;51.494;6.670;2022-08-19T05:18:27;18.40;99.90
19017;DHT22;9641;51.494;6.670;2022-08-19T05:21:16;18.40;99.90
19017;DHT22;9641;51.494;6.670;2022-08-19T05:24:00;18.40;99.90
19017;DHT22;9641;51.494;6.670;2022-08-19T05:26:28;18.40;99.90
19017;DHT22;9641;51.494;6.670;2022-08-19T05:28:55;18.40;99.90
19017;DHT22;9641;51.494;6.670;2022-08-19T05:31:22;18.40;99.90
19017;DHT22;9641;51.494;6.670;2022-08-19T05:33:49;18.50;99.90
19017;DHT22;9641;51.494;6.670;2022-08-19T05:36:17;18.50;99.90
19017;DHT22;9641;51.494;6.670;2022-08-19T05:38:45;18.60;99.90
19017;DHT22;9641;51.494;6.670;2022-08-19T05:41:13;18.60;99.90
19017;DHT22;9641;51.494;6.670;2022-08-19T05:43:41;18.70;99.90
19017;DHT22;9641;51.494;6.670;2022-08-19T05:46:16;18.80;99.90
19017;DHT22;9641;51.494;6.670;2022-08-19T05:48:43;18.80;99.90
19017;DHT22;9641;51.494;6.670;2022-08-19T05:51:10;18.80;99.90
19017;DHT22;9641;51.494;6.670;2022-08-19T05:53:38;18.90;99.90
19017;DHT22;9641;51.494;6.670;2022-08-19T05:56:06;18.90;99.90
19017;DHT22;9641;51.494;6.670;2022-08-19T05:58:33;18.90;99.90
19017;DHT22;9641;51.494;6.670;2022-08-19T06:01:00;19.00;99.90
19017;DHT22;9641;51.494;6.670;2022-08-19T06:03:30;19.10;99.90
19017;DHT22;9641;51.494;6.670;2022-08-19T06:05:58;19.10;99.90
19017;DHT22;9641;51.494;6.670;2022-08-19T06:08:26;19.10;99.90
19017;DHT22;9641;51.494;6.670;2022-08-19T06:10:55;19.20;99.90
19017;DHT22;9641;51.494;6.670;2022-08-19T06:13:22;19.20;99.90
19017;DHT22;9641;51.494;6.670;2022-08-19T06:15:50;19.30;99.90
19017;DHT22;9641;51.494;6.670;2022-08-19T06:18:16;19.30;99.90
19017;DHT22;9641;51.494;6.670;2022-08-19T06:20:45;19.40;99.90
19017;DHT22;9641;51.494;6.670;2022-08-19T06:23:12;19.40;99.90
19017;DHT22;9641;51.494;6.670;2022-08-19T06:25:39;19.40;99.90
19017;DHT22;9641;51.494;6.670;2022-08-19T06:28:07;19.50;99.90
19017;DHT22;9641;51.494;6.670;2022-08-19T06:30:35;19.50;99.90
19017;DHT22;9641;51.494;6.670;2022-08-19T06:33:02;19.50;99.90
19017;DHT22;9641;51.494;6.670;2022-08-19T06:35:29;19.50;99.90
19017;DHT22;9641;51.494;6.670;2022-08-19T06:37:56;19.60;99.90
19017;DHT22;9641;51.494;6.670;2022-08-19T06:40:23;19.60;99.90
19017;DHT22;9641;51.494;6.670;2022-08-19T06:42:50;19.70;99.90
19017;DHT22;9641;51.494;6.670;2022-08-19T06:45:19;19.70;99.90
19017;DHT22;9641;51.494;6.670;2022-08-19T06:47:46;19.70;99.90
19017;DHT22;9641;51.494;6.670;2022-08-19T06:50:13;19.70;99.90
19017;DHT22;9641;51.494;6.670;2022-08-19T06:52:40;19.70;99.90
19017;DHT22;9641;51.494;6.670;2022-08-19T06:55:08;19.80;99.90
19017;DHT22;9641;51.494;6.670;2022-08-19T06:57:35;19.80;99.90
19017;DHT22;9641;51.494;6.670;2022-08-19T07:00:03;19.80;99.90
19017;DHT22;9641;51.494;6.670;2022-08-19T07:02:32;19.90;99.90
19017;DHT22;9641;51.494;6.670;2022-08-19T07:05:04;20.00;99.90
19017;DHT22;9641;51.494;6.670;2022-08-19T07:07:34;20.10;99.90
19017;DHT22;9641;51.494;6.670;2022-08-19T07:10:11;20.00;99.90
19017;DHT22;9641;51.494;6.670;2022-08-19T07:12:37;20.10;99.90
19017;DHT22;9641;51.494;6.670;2022-08-19T07:15:06;20.10;99.90
19017;DHT22;9641;51.494;6.670;2022-08-19T07:17:36;20.20;99.90
19017;DHT22;9641;51.494;6.670;2022-08-19T07:20:06;20.30;99.90
19017;DHT22;9641;51.494;6.670;2022-08-19T07:22:33;20.40;99.90
19017;DHT22;9641;51.494;6.670;2022-08-19T07:25:00;20.50;99.90
19017;DHT22;9641;51.494;6.670;2022-08-19T07:27:29;20.60;99.90
19017;DHT22;9641;51.494;6.670;2022-08-19T07:29:55;20.70;99.90
19017;DHT22;9641;51.494;6.670;2022-08-19T07:32:22;20.80;99.90
19017;DHT22;9641;51.494;6.670;2022-08-19T07:34:52;21.00;99.90
19017;DHT22;9641;51.494;6.670;2022-08-19T07:37:19;21.10;99.90
19017;DHT22;9641;51.494;6.670;2022-08-19T07:39:46;21.20;99.90
19017;DHT22;9641;51.494;6.670;2022-08-19T07:42:13;21.20;99.90
19017;DHT22;9641;51.494;6.670;2022-08-19T07:44:41;21.20;99.90
19017;DHT22;9641;51.494;6.670;2022-08-19T07:47:07;21.20;99.90
19017;DHT22;9641;51.494;6.670;2022-08-19T07:49:34;21.30;99.90
19017;DHT22;9641;51.494;6.670;2022-08-19T07:52:05;21.30;99.90
19017;DHT22;9641;51.494;6.670;2022-08-19T07:54:35;21.30;99.90
19017;DHT22;9641;51.494;6.670;2022-08-19T07:57:03;21.30;99.90
19017;DHT22;9641;51.494;6.670;2022-08-19T07:59:30;21.30;99.90
19017;DHT22;9641;51.494;6.670;2022-08-19T08:01:58;21.30;99.90
19017;DHT22;9641;51.494;6.670;2022-08-19T08:04:26;21.40;99.90
19017;DHT22;9641;51.494;6.670;2022-08-19T08:07:12;21.50;99.90
19017;DHT22;9641;51.494;6.670;2022-08-19T08:09:56;21.60;99.90
19017;DHT22;9641;51.494;6.670;2022-08-19T08:12:24;21.70;64.70
19017;DHT22;9641;51.494;6.670;2022-08-19T08:14:58;21.80;42.10
19017;DHT22;9641;51.494;6.670;2022-08-19T08:17:28;22.00;37.40
19017;DHT22;9641;51.494;6.670;2022-08-19T08:19:55;22.00;11.40
19017;DHT22;9641;51.494;6.670;2022-08-19T08:22:24;22.00;1.00
19017;DHT22;9641;51.494;6.670;2022-08-19T08:25:18;22.00;12.70
19017;DHT22;9641;51.494;6.670;2022-08-19T08:27:46;22.00;1.00
19017;DHT22;9641;51.494;6.670;2022-08-19T08:30:16;21.90;1.00
19017;DHT22;9641;51.494;6.670;2022-08-19T08:32:43;21.80;1.00
19017;DHT22;9641;51.494;6.670;2022-08-19T08:35:12;21.80;1.00
19017;DHT22;9641;51.494;6.670;2022-08-19T08:37:40;21.90;1.00
19017;DHT22;9641;51.494;6.670;2022-08-19T08:40:16;21.90;1.00
19017;DHT22;9641;51.494;6.670;2022-08-19T08:42:50;22.00;1.00
19017;DHT22;9641;51.494;6.670;2022-08-19T08:45:18;22.00;1.00
19017;DHT22;9641;51.494;6.670;2022-08-19T08:47:48;22.10;1.00
19017;DHT22;9641;51.494;6.670;2022-08-19T08:50:20;22.20;1.00
19017;DHT22;9641;51.494;6.670;2022-08-19T08:52:53;22.20;1.00
19017;DHT22;9641;51.494;6.670;2022-08-19T08:55:25;22.30;1.00
19017;DHT22;9641;51.494;6.670;2022-08-19T08:57:57;22.30;1.00
19017;DHT22;9641;51.494;6.670;2022-08-19T09:00:27;22.40;1.00
19017;DHT22;9641;51.494;6.670;2022-08-19T09:02:55;22.50;99.90
19017;DHT22;9641;51.494;6.670;2022-08-19T09:05:36;22.60;54.40
19017;DHT22;9641;51.494;6.670;2022-08-19T09:08:10;22.60;99.90
19017;DHT22;9641;51.494;6.670;2022-08-19T09:10:43;22.70;1.00
19017;DHT22;9641;51.494;6.670;2022-08-19T09:13:20;22.70;99.90
19017;DHT22;9641;51.494;6.670;2022-08-19T09:15:54;22.90;1.00
19017;DHT22;9641;51.494;6.670;2022-08-19T09:18:23;22.80;99.90
19017;DHT22;9641;51.494;6.670;2022-08-19T09:20:49;22.90;1.00
19017;DHT22;9641;51.494;6.670;2022-08-19T09:23:18;22.90;1.00
19017;DHT22;9641;51.494;6.670;2022-08-19T09:25:49;22.90;1.00
19017;DHT22;9641;51.494;6.670;2022-08-19T09:28:16;22.90;1.00
19017;DHT22;9641;51.494;6.670;2022-08-19T09:30:43;22.90;99.90
19017;DHT22;9641;51.494;6.670;2022-08-19T09:33:10;23.10;1.00
19017;DHT22;9641;51.494;6.670;2022-08-19T09:35:37;23.20;99.90
19017;DHT22;9641;51.494;6.670;2022-08-19T09:38:12;23.20;99.90
19017;DHT22;9641;51.494;6.670;2022-08-19T09:40:42;23.20;1.00
19017;DHT22;9641;51.494;6.670;2022-08-19T09:43:09;23.10;99.90
19017;DHT22;9641;51.494;6.670;2022-08-19T09:45:36;23.10;1.00
19017;DHT22;9641;51.494;6.670;2022-08-19T09:48:05;23.10;1.00
19017;DHT22;9641;51.494;6.670;2022-08-19T09:50:32;23.10;99.90
19017;DHT22;9641;51.494;6.670;2022-08-19T09:53:00;23.10;1.00
19017;DHT22;9641;51.494;6.670;2022-08-19T09:55:27;23.10;99.90
19017;DHT22;9641;51.494;6.670;2022-08-19T09:57:55;23.10;1.00
19017;DHT22;9641;51.494;6.670;2022-08-19T10:00:22;23.30;99.90
19017;DHT22;9641;51.494;6.670;2022-08-19T10:02:49;23.40;99.90
19017;DHT22;9641;51.494;6.670;2022-08-19T10:05:15;23.60;1.00
19017;DHT22;9641;51.494;6.670;2022-08-19T10:08:00;23.80;1.00
19017;DHT22;9641;51.494;6.670;2022-08-19T10:10:27;23.90;99.90
19017;DHT22;9641;51.494;6.670;2022-08-19T10:12:55;24.10;1.00
19017;DHT22;9641;51.494;6.670;2022-08-19T10:15:22;24.30;1.00
19017;DHT22;9641;51.494;6.670;2022-08-19T10:17:48;24.40;99.90
19017;DHT22;9641;51.494;6.670;2022-08-19T10:20:15;24.50;99.90
19017;DHT22;9641;51.494;6.670;2022-08-19T10:22:42;24.40;85.20
19017;DHT22;9641;51.494;6.670;2022-08-19T10:25:09;24.20;99.90
19017;DHT22;9641;51.494;6.670;2022-08-19T10:27:38;24.10;99.90
19017;DHT22;9641;51.494;6.670;2022-08-19T10:30:07;24.30;1.00
19017;DHT22;9641;51.494;6.670;2022-08-19T10:32:35;24.50;99.90
19017;DHT22;9641;51.494;6.670;2022-08-19T10:35:02;24.80;1.00
19017;DHT22;9641;51.494;6.670;2022-08-19T10:37:29;25.00;1.00
19017;DHT22;9641;51.494;6.670;2022-08-19T10:39:56;25.20;1.00
19017;DHT22;9641;51.494;6.670;2022-08-19T10:42:23;24.90;1.00
19017;DHT22;9641;51.494;6.670;2022-08-19T10:44:50;24.70;1.00
19017;DHT22;9641;51.494;6.670;2022-08-19T10:47:18;24.50;1.00
19017;DHT22;9641;51.494;6.670;2022-08-19T10:49:48;24.30;1.00
19017;DHT22;9641;51.494;6.670;2022-08-19T10:52:32;24.50;1.00
19017;DHT22;9641;51.494;6.670;2022-08-19T10:55:04;24.80;17.00
19017;DHT22;9641;51.494;6.670;2022-08-19T10:57:48;25.10;99.90
19017;DHT22;9641;51.494;6.670;2022-08-19T11:00:16;25.50;1.00
19017;DHT22;9641;51.494;6.670;2022-08-19T11:02:44;25.90;99.90
19017;DHT22;9641;51.494;6.670;2022-08-19T11:05:11;25.90;99.90
19017;DHT22;9641;51.494;6.670;2022-08-19T11:07:40;25.70;99.90
19017;DHT22;9641;51.494;6.670;2022-08-19T11:10:09;25.70;99.90
19017;DHT22;9641;51.494;6.670;2022-08-19T11:12:37;25.80;99.90
19017;DHT22;9641;51.494;6.670;2022-08-19T11:15:05;25.90;99.90
19017;DHT22;9641;51.494;6.670;2022-08-19T11:17:37;25.90;99.90
19017;DHT22;9641;51.494;6.670;2022-08-19T11:20:09;25.80;99.90
19017;DHT22;9641;51.494;6.670;2022-08-19T11:22:38;25.70;99.90
19017;DHT22;9641;51.494;6.670;2022-08-19T11:25:06;25.70;99.90
19017;DHT22;9641;51.494;6.670;2022-08-19T11:27:36;25.50;99.90
19017;DHT22;9641;51.494;6.670;2022-08-19T11:30:05;25.30;99.90
19017;DHT22;9641;51.494;6.670;2022-08-19T11:32:33;25.10;99.90
19017;DHT22;9641;51.494;6.670;2022-08-19T11:35:00;25.00;99.90
19017;DHT22;9641;51.494;6.670;2022-08-19T11:37:28;25.00;99.90
19017;DHT22;9641;51.494;6.670;2022-08-19T11:39:55;25.10;99.90
19017;DHT22;9641;51.494;6.670;2022-08-19T11:42:21;25.20;99.90
19017;DHT22;9641;51.494;6.670;2022-08-19T11:45:06;25.50;99.90
19017;DHT22;9641;51.494;6.670;2022-08-19T11:47:34;25.70;99.90
19017;DHT22;9641;51.494;6.670;2022-08-19T11:50:02;25.70;99.90
19017;DHT22;9641;51.494;6.670;2022-08-19T11:52:31;26.00;99.90
19017;DHT22;9641;51.494;6.670;2022-08-19T11:54:58;26.00;99.90
19017;DHT22;9641;51.494;6.670;2022-08-19T11:57:24;26.00;99.90
19017;DHT22;9641;51.494;6.670;2022-08-19T11:59:53;26.00;99.90
19017;DHT22;9641;51.494;6.670;2022-08-19T12:02:20;26.20;99.90
19017;DHT22;9641;51.494;6.670;2022-08-19T12:04:47;26.40;99.90
19017;DHT22;9641;51.494;6.670;2022-08-19T12:07:14;26.40;99.90
19017;DHT22;9641;51.494;6.670;2022-08-19T12:09:42;26.70;99.90
19017;DHT22;9641;51.494;6.670;2022-08-19T12:12:09;27.30;99.90
19017;DHT22;9641;51.494;6.670;2022-08-19T12:14:36;27.90;96.90
19017;DHT22;9641;51.494;6.670;2022-08-19T12:17:03;28.30;68.90
19017;DHT22;9641;51.494;6.670;2022-08-19T12:19:33;28.40;48.00
19017;DHT22;9641;51.494;6.670;2022-08-19T12:22:01;28.40;21.90
19017;DHT22;9641;51.494;6.670;2022-08-19T12:24:30;28.60;26.70
19017;DHT22;9641;51.494;6.670;2022-08-19T12:26:59;28.80;1.00
19017;DHT22;9641;51.494;6.670;2022-08-19T12:29:28;28.80;1.00
19017;DHT22;9641;51.494;6.670;2022-08-19T12:31:55;29.00;20.20
19017;DHT22;9641;51.494;6.670;2022-08-19T12:34:26;29.20;1.00
19017;DHT22;9641;51.494;6.670;2022-08-19T12:36:55;29.00;1.00
19017;DHT22;9641;51.494;6.670;2022-08-19T12:39:22;29.20;1.00
19017;DHT22;9641;51.494;6.670;2022-08-19T12:41:49;29.70;1.00
19017;DHT22;9641;51.494;6.670;2022-08-19T12:44:17;29.80;1.00
19017;DHT22;9641;51.494;6.670;2022-08-19T12:46:44;30.10;1.00
19017;DHT22;9641;51.494;6.670;2022-08-19T12:49:11;30.60;1.00
19017;DHT22;9641;51.494;6.670;2022-08-19T12:51:38;30.70;1.00
19017;DHT22;9641;51.494;6.670;2022-08-19T12:54:04;30.70;1.00
19017;DHT22;9641;51.494;6.670;2022-08-19T12:56:31;31.10;1.00
19017;DHT22;9641;51.494;6.670;2022-08-19T12:59:01;31.30;1.00
19017;DHT22;9641;51.494;6.670;2022-08-19T13:01:29;31.10;1.00
19017;DHT22;9641;51.494;6.670;2022-08-19T13:03:58;31.10;1.00
19017;DHT22;9641;51.494;6.670;2022-08-19T13:06:25;31.10;1.00
19017;DHT22;9641;51.494;6.670;2022-08-19T13:08:52;31.30;1.00
19017;DHT22;9641;51.494;6.670;2022-08-19T13:11:20;31.60;1.00
19017;DHT22;9641;51.494;6.670;2022-08-19T13:13:51;32.10;1.00
19017;DHT22;9641;51.494;6.670;2022-08-19T13:16:19;32.30;1.00
19017;DHT22;9641;51.494;6.670;2022-08-19T13:18:49;32.50;1.00
19017;DHT22;9641;51.494;6.670;2022-08-19T13:21:18;32.70;1.00
19017;DHT22;9641;51.494;6.670;2022-08-19T13:23:47;33.20;1.00
19017;DHT22;9641;51.494;6.670;2022-08-19T13:26:15;33.50;1.00
19017;DHT22;9641;51.494;6.670;2022-08-19T13:28:43;33.20;1.00
19017;DHT22;9641;51.494;6.670;2022-08-19T13:31:31;33.10;1.00
19017;DHT22;9641;51.494;6.670;2022-08-19T13:34:17;32.90;1.00
19017;DHT22;9641;51.494;6.670;2022-08-19T13:36:45;33.20;1.00
19017;DHT22;9641;51.494;6.670;2022-08-19T13:39:12;32.70;1.00
19017;DHT22;9641;51.494;6.670;2022-08-19T13:41:44;32.50;1.00
19017;DHT22;9641;51.494;6.670;2022-08-19T13:44:13;32.70;1.00
19017;DHT22;9641;51.494;6.670;2022-08-19T13:46:40;32.20;1.00
19017;DHT22;9641;51.494;6.670;2022-08-19T13:49:09;31.70;1.00
19017;DHT22;9641;51.494;6.670;2022-08-19T13:51:39;31.90;1.00
19017;DHT22;9641;51.494;6.670;2022-08-19T13:54:06;32.50;1.00
19017;DHT22;9641;51.494;6.670;2022-08-19T13:56:34;33.00;1.00
19017;DHT22;9641;51.494;6.670;2022-08-19T13:59:01;33.10;1.00
19017;DHT22;9641;51.494;6.670;2022-08-19T14:01:28;32.70;1.00
19017;DHT22;9641;51.494;6.670;2022-08-19T14:03:55;32.90;1.00
19017;DHT22;9641;51.494;6.670;2022-08-19T14:06:22;33.10;1.00
19017;DHT22;9641;51.494;6.670;2022-08-19T14:08:52;33.40;1.00
19017;DHT22;9641;51.494;6.670;2022-08-19T14:11:19;33.80;1.00
19017;DHT22;9641;51.494;6.670;2022-08-19T14:13:48;34.30;1.00
19017;DHT22;9641;51.494;6.670;2022-08-19T14:16:15;35.00;1.00
19017;DHT22;9641;51.494;6.670;2022-08-19T14:18:43;35.80;1.00
19017;DHT22;9641;51.494;6.670;2022-08-19T14:21:15;35.70;1.00
19017;DHT22;9641;51.494;6.670;2022-08-19T14:23:43;35.30;1.00
19017;DHT22;9641;51.494;6.670;2022-08-19T14:26:13;35.20;1.00
19017;DHT22;9641;51.494;6.670;2022-08-19T14:28:41;35.20;1.00
19017;DHT22;9641;51.494;6.670;2022-08-19T14:31:08;35.00;1.00
19017;DHT22;9641;51.494;6.670;2022-08-19T14:33:34;35.30;1.00
19017;DHT22;9641;51.494;6.670;2022-08-19T14:36:02;35.40;1.00
19017;DHT22;9641;51.494;6.670;2022-08-19T14:38:29;35.50;1.00
19017;DHT22;9641;51.494;6.670;2022-08-19T14:41:06;35.20;1.00
19017;DHT22;9641;51.494;6.670;2022-08-19T14:43:34;35.00;1.00
19017;DHT22;9641;51.494;6.670;2022-08-19T14:46:01;34.80;1.00
19017;DHT22;9641;51.494;6.670;2022-08-19T14:48:28;35.10;1.00
19017;DHT22;9641;51.494;6.670;2022-08-19T14:50:55;34.90;1.00
19017;DHT22;9641;51.494;6.670;2022-08-19T14:53:22;35.00;1.00
19017;DHT22;9641;51.494;6.670;2022-08-19T14:55:50;34.90;1.00
19017;DHT22;9641;51.494;6.670;2022-08-19T14:58:17;34.80;1.00
19017;DHT22;9641;51.494;6.670;2022-08-19T15:00:46;34.50;1.00
19017;DHT22;9641;51.494;6.670;2022-08-19T15:03:13;34.50;1.00
19017;DHT22;9641;51.494;6.670;2022-08-19T15:05:40;35.40;1.00
19017;DHT22;9641;51.494;6.670;2022-08-19T15:08:08;35.70;1.00
19017;DHT22;9641;51.494;6.670;2022-08-19T15:10:39;35.00;1.00
19017;DHT22;9641;51.494;6.670;2022-08-19T15:13:05;35.40;1.00
19017;DHT22;9641;51.494;6.670;2022-08-19T15:15:32;35.80;1.00
19017;DHT22;9641;51.494;6.670;2022-08-19T15:18:01;35.80;1.00
19017;DHT22;9641;51.494;6.670;2022-08-19T15:20:29;36.20;1.00
19017;DHT22;9641;51.494;6.670;2022-08-19T15:22:56;36.50;1.00
19017;DHT22;9641;51.494;6.670;2022-08-19T15:25:24;36.90;1.00
19017;DHT22;9641;51.494;6.670;2022-08-19T15:27:51;37.20;1.00
19017;DHT22;9641;51.494;6.670;2022-08-19T15:30:21;37.20;1.00
19017;DHT22;9641;51.494;6.670;2022-08-19T15:32:48;37.70;1.00
19017;DHT22;9641;51.494;6.670;2022-08-19T15:35:16;38.00;1.00
19017;DHT22;9641;51.494;6.670;2022-08-19T15:37:44;37.40;1.00
19017;DHT22;9641;51.494;6.670;2022-08-19T15:40:11;37.10;1.00
19017;DHT22;9641;51.494;6.670;2022-08-19T15:42:38;37.10;1.00
19017;DHT22;9641;51.494;6.670;2022-08-19T15:45:09;36.40;1.00
19017;DHT22;9641;51.494;6.670;2022-08-19T15:47:37;36.30;1.00
19017;DHT22;9641;51.494;6.670;2022-08-19T15:50:07;36.20;1.00
19017;DHT22;9641;51.494;6.670;2022-08-19T15:52:35;36.30;1.00
19017;DHT22;9641;51.494;6.670;2022-08-19T15:55:04;34.80;1.00
19017;DHT22;9641;51.494;6.670;2022-08-19T15:57:32;33.20;1.00
19017;DHT22;9641;51.494;6.670;2022-08-19T16:00:16;32.20;1.00
19017;DHT22;9641;51.494;6.670;2022-08-19T16:03:01;31.30;1.00